createdAt,value
2018-11-25T00:00:30.429Z,27.93
2018-11-25T00:03:35.916Z,27.47
2018-11-25T00:06:42.599Z,27.83
2018-11-25T00:09:46.726Z,27.43
2018-11-25T00:12:52.214Z,28.33
2018-11-25T00:15:57.559Z,27.57
2018-11-25T00:19:02.986Z,29.13
2018-11-25T00:22:08.502Z,28.17
2018-11-25T00:25:15.311Z,26.40
2018-11-25T00:28:20.768Z,28.43
2018-11-25T00:31:26.476Z,28.50
2018-11-25T00:34:31.959Z,27.93
2018-11-25T00:37:37.390Z,27.07
2018-11-25T00:40:42.836Z,27.67
2018-11-25T00:43:48.382Z,27.63
2018-11-25T00:46:53.815Z,27.47
2018-11-25T00:49:59.206Z,28.83
2018-11-25T00:53:04.719Z,28.47
2018-11-25T00:56:10.183Z,29.33
2018-11-25T00:59:15.650Z,27.30
2018-11-25T01:02:21.137Z,27.23
2018-11-25T01:05:27.059Z,28.77
2018-11-25T01:08:32.536Z,28.80
2018-11-25T01:11:38.134Z,29.20
2018-11-25T01:14:43.592Z,29.23
2018-11-25T01:17:49.115Z,30.07
2018-11-25T01:20:54.497Z,30.93
2018-11-25T01:24:00.040Z,28.97
2018-11-25T01:27:06.464Z,29.93
2018-11-25T01:30:13.915Z,29.37
2018-11-25T01:33:19.463Z,27.87
2018-11-25T01:36:25.013Z,30.50
2018-11-25T01:39:30.460Z,29.83
2018-11-25T01:42:36.219Z,31.00
2018-11-25T01:45:42.386Z,31.37
2018-11-25T01:48:47.833Z,31.50
2018-11-25T01:51:53.463Z,30.77
2018-11-25T01:54:58.927Z,30.40
2018-11-25T01:58:04.369Z,30.93
2018-11-25T02:01:09.951Z,31.63
2018-11-25T02:04:15.383Z,30.63
2018-11-25T02:07:20.807Z,33.03
2018-11-25T02:10:26.389Z,33.13
2018-11-25T02:13:31.735Z,32.60
2018-11-25T02:16:37.166Z,31.47
2018-11-25T02:19:42.654Z,32.50
2018-11-25T02:22:48.155Z,33.10
2018-11-25T02:25:53.755Z,34.07
2018-11-25T02:28:59.154Z,32.07
2018-11-25T02:32:04.628Z,34.13
2018-11-25T02:35:12.315Z,33.03
2018-11-25T02:38:17.774Z,35.20
2018-11-25T02:41:23.328Z,34.17
2018-11-25T02:44:28.776Z,35.23
2018-11-25T02:47:34.219Z,35.20
2018-11-25T02:50:39.672Z,33.53
2018-11-25T02:53:45.203Z,36.03
2018-11-25T02:56:50.565Z,36.37
2018-11-25T02:59:56.019Z,35.60
2018-11-25T03:03:01.500Z,36.07
2018-11-25T03:06:07.125Z,34.13
2018-11-25T03:09:12.566Z,36.67
2018-11-25T03:12:18.117Z,33.53
2018-11-25T03:15:23.631Z,39.33
2018-11-25T03:18:28.990Z,35.40
2018-11-25T03:21:34.467Z,36.13
2018-11-25T03:24:39.826Z,34.43
2018-11-25T03:27:45.259Z,34.90
2018-11-25T03:30:50.627Z,36.83
2018-11-25T03:33:56.172Z,32.97
2018-11-25T03:37:01.611Z,37.13
2018-11-25T03:40:09.741Z,34.63
2018-11-25T03:43:15.242Z,35.33
2018-11-25T03:46:20.619Z,35.07
2018-11-25T03:49:26.059Z,36.07
2018-11-25T03:52:31.539Z,34.67
2018-11-25T03:55:36.965Z,33.73
2018-11-25T03:58:42.311Z,33.70
2018-11-25T04:01:47.862Z,34.00
2018-11-25T04:04:53.278Z,33.20
2018-11-25T04:07:58.663Z,33.40
2018-11-25T04:11:04.499Z,36.07
2018-11-25T04:14:09.943Z,33.70
2018-11-25T04:17:15.420Z,33.00
2018-11-25T04:20:21.929Z,32.63
2018-11-25T04:23:27.574Z,31.93
2018-11-25T04:26:32.958Z,32.70
2018-11-25T04:29:38.407Z,33.50
2018-11-25T04:32:45.648Z,32.97
2018-11-25T04:35:51.176Z,34.30
2018-11-25T04:38:56.598Z,33.27
2018-11-25T04:42:02.091Z,34.77
2018-11-25T04:45:13.290Z,33.37
2018-11-25T04:48:18.699Z,34.60
2018-11-25T04:51:24.175Z,33.40
2018-11-25T04:54:29.575Z,31.63
2018-11-25T04:57:35.175Z,33.00
2018-11-25T05:00:40.607Z,30.60
2018-11-25T05:03:46.130Z,31.87
2018-11-25T05:06:51.631Z,33.23
2018-11-25T05:09:57.047Z,31.90
2018-11-25T05:13:02.612Z,31.63
2018-11-25T05:16:08.047Z,32.00
2018-11-25T05:19:13.519Z,32.53
2018-11-25T05:22:19.082Z,31.50
2018-11-25T05:25:24.774Z,30.70
2018-11-25T05:28:30.139Z,33.10
2018-11-25T05:31:35.603Z,31.80
2018-11-25T05:34:41.028Z,32.53
2018-11-25T05:37:46.426Z,32.03
2018-11-25T05:40:52.411Z,32.37
2018-11-25T05:43:57.914Z,33.03
2018-11-25T05:47:03.359Z,33.47
2018-11-25T05:50:13.916Z,31.73
2018-11-25T05:53:19.371Z,32.13
2018-11-25T05:56:24.807Z,31.53
2018-11-25T05:59:30.303Z,32.43
2018-11-25T06:02:35.843Z,32.37
2018-11-25T06:05:41.252Z,34.13
2018-11-25T06:08:46.610Z,33.63
2018-11-25T06:11:52.067Z,32.87
2018-11-25T06:14:57.492Z,33.47
2018-11-25T06:18:02.867Z,33.93
2018-11-25T06:21:08.306Z,33.70
2018-11-25T06:24:13.759Z,34.33
2018-11-25T06:27:19.230Z,33.57
2018-11-25T06:30:24.639Z,34.47
2018-11-25T06:33:31.047Z,32.83
2018-11-25T06:36:36.456Z,31.60
2018-11-25T06:39:41.923Z,33.83
2018-11-25T06:42:47.889Z,34.03
2018-11-25T06:45:53.306Z,32.73
2018-11-25T06:48:58.831Z,33.40
2018-11-25T06:52:04.252Z,34.23
2018-11-25T06:55:11.888Z,34.97
2018-11-25T06:58:17.255Z,33.07
2018-11-25T07:01:22.711Z,33.60
2018-11-25T07:04:28.197Z,32.40
2018-11-25T07:07:33.630Z,33.13
2018-11-25T07:10:39.055Z,32.53
2018-11-25T07:13:44.518Z,33.87
2018-11-25T07:16:49.950Z,33.13
2018-11-25T07:19:55.424Z,32.60
2018-11-25T07:23:00.976Z,33.30
2018-11-25T07:26:06.560Z,31.93
2018-11-25T07:29:11.997Z,33.63
2018-11-25T07:32:17.495Z,34.37
2018-11-25T07:35:24.626Z,33.63
2018-11-25T07:38:29.983Z,33.80
2018-11-25T07:41:35.707Z,33.33
2018-11-25T07:44:41.167Z,34.43
2018-11-25T07:47:46.610Z,32.47
2018-11-25T07:50:52.063Z,32.10
2018-11-25T07:53:57.607Z,35.47
2018-11-25T07:57:03.053Z,34.77
2018-11-25T08:00:14.240Z,35.43
2018-11-25T08:03:19.721Z,35.10
2018-11-25T08:06:25.111Z,34.40
2018-11-25T08:09:30.512Z,37.90
2018-11-25T08:12:36.071Z,35.00
2018-11-25T08:15:41.431Z,34.97
2018-11-25T08:18:46.850Z,34.20
2018-11-25T08:21:52.400Z,34.63
2018-11-25T08:24:57.835Z,38.67
2018-11-25T08:28:03.283Z,35.57
2018-11-25T08:31:08.828Z,35.70
2018-11-25T08:34:14.298Z,35.40
2018-11-25T08:37:19.638Z,35.17
2018-11-25T08:40:26.282Z,37.07
2018-11-25T08:43:31.763Z,38.00
2018-11-25T08:46:37.204Z,37.07
2018-11-25T08:49:42.691Z,36.73
2018-11-25T08:52:50.172Z,38.17
2018-11-25T08:55:55.604Z,39.23
2018-11-25T08:59:01.143Z,36.93
2018-11-25T09:02:07.755Z,38.47
2018-11-25T09:05:14.984Z,38.70
2018-11-25T09:08:20.395Z,37.47
2018-11-25T09:11:25.910Z,37.93
2018-11-25T09:14:31.396Z,38.27
2018-11-25T09:17:36.787Z,39.67
2018-11-25T09:20:42.254Z,38.97
2018-11-25T09:23:47.803Z,36.87
2018-11-25T09:26:53.291Z,37.67
2018-11-25T09:29:58.768Z,38.70
2018-11-25T09:33:04.495Z,38.97
2018-11-25T09:36:12.063Z,36.97
2018-11-25T09:39:17.418Z,39.70
2018-11-25T09:42:22.999Z,40.17
2018-11-25T09:45:28.414Z,40.00
2018-11-25T09:48:33.748Z,38.90
2018-11-25T09:51:39.131Z,39.17
2018-11-25T09:54:44.478Z,38.73
2018-11-25T09:57:52.614Z,37.97
2018-11-25T10:00:57.975Z,39.27
2018-11-25T10:04:03.368Z,37.67
2018-11-25T10:07:08.731Z,36.90
2018-11-25T10:10:18.267Z,37.93
2018-11-25T10:13:23.713Z,38.83
2018-11-25T10:16:29.059Z,35.40
2018-11-25T10:19:34.413Z,35.27
2018-11-25T10:22:39.833Z,37.20
2018-11-25T10:25:45.219Z,34.33
2018-11-25T10:28:50.563Z,34.13
2018-11-25T10:31:56.157Z,34.90
2018-11-25T10:35:01.684Z,33.93
2018-11-25T10:38:07.275Z,33.57
2018-11-25T10:41:12.623Z,34.87
2018-11-25T10:44:18.301Z,32.80
2018-11-25T10:47:23.519Z,32.00
2018-11-25T10:50:29.287Z,31.90
2018-11-25T10:53:34.742Z,29.83
2018-11-25T10:56:40.609Z,32.30
2018-11-25T10:59:48.386Z,29.97
2018-11-25T11:02:59.251Z,32.53
2018-11-25T11:06:10.127Z,31.33
2018-11-25T11:09:15.894Z,30.40
2018-11-25T11:12:21.661Z,33.40
2018-11-25T11:15:27.434Z,30.67
2018-11-25T11:18:32.800Z,28.97
2018-11-25T11:21:38.272Z,31.77
2018-11-25T11:24:43.955Z,30.07
2018-11-25T11:27:49.431Z,29.27
2018-11-25T11:30:55.083Z,29.57
2018-11-25T11:34:00.714Z,30.63
2018-11-25T11:37:06.555Z,28.67
2018-11-25T11:40:13.965Z,32.27
2018-11-25T11:43:19.671Z,32.50
2018-11-25T11:46:25.294Z,31.93
2018-11-25T11:49:30.654Z,30.27
2018-11-25T11:52:36.210Z,33.40
2018-11-25T11:55:41.596Z,31.70
2018-11-25T11:58:47.046Z,32.17
2018-11-25T12:01:52.531Z,33.03
2018-11-25T12:04:57.979Z,33.37
2018-11-25T12:08:03.443Z,32.37
2018-11-25T12:11:08.974Z,34.43
2018-11-25T12:14:14.323Z,33.40
2018-11-25T12:17:19.773Z,34.23
2018-11-25T12:20:26.399Z,34.20
2018-11-25T12:23:31.835Z,35.90
2018-11-25T12:26:37.258Z,35.53
2018-11-25T12:29:42.792Z,36.77
2018-11-25T12:32:50.858Z,36.10
2018-11-25T12:35:56.359Z,37.47
2018-11-25T12:39:02.354Z,37.30
2018-11-25T12:42:07.869Z,40.47
2018-11-25T12:45:16.882Z,39.07
2018-11-25T12:48:22.524Z,38.10
2018-11-25T12:51:58.583Z,38.33
2018-11-25T12:55:03.936Z,39.33
2018-11-25T12:58:09.344Z,38.73
2018-11-25T13:01:14.739Z,40.43
2018-11-25T13:04:20.096Z,39.10
2018-11-25T13:07:25.480Z,38.40
2018-11-25T13:10:30.860Z,37.53
2018-11-25T13:13:36.314Z,37.00
2018-11-25T13:16:41.672Z,37.33
2018-11-25T13:19:46.999Z,36.57
2018-11-25T13:22:52.428Z,37.43
2018-11-25T13:25:57.787Z,38.63
2018-11-25T13:29:03.211Z,38.37
2018-11-25T13:32:08.670Z,35.40
2018-11-25T13:35:14.066Z,37.23
2018-11-25T13:38:19.499Z,39.20
2018-11-25T13:41:24.891Z,34.83
2018-11-25T13:44:30.310Z,34.50
2018-11-25T13:47:35.740Z,35.80
2018-11-25T13:50:41.139Z,34.83
2018-11-25T13:53:46.559Z,32.53
2018-11-25T13:56:51.926Z,34.07
2018-11-25T13:59:57.532Z,33.60
2018-11-25T14:03:03.887Z,31.37
2018-11-25T14:06:14.560Z,33.17
2018-11-25T14:09:20.004Z,33.40
2018-11-25T14:12:25.518Z,32.40
2018-11-25T14:15:31.268Z,29.67
2018-11-25T14:18:36.749Z,32.07
2018-11-25T14:21:42.222Z,32.27
2018-11-25T14:24:47.651Z,31.63
2018-11-25T14:27:55.983Z,31.00
2018-11-25T14:31:01.356Z,30.93
2018-11-25T14:34:07.163Z,29.63
2018-11-25T14:37:12.673Z,29.37
2018-11-25T14:40:20.017Z,29.13
2018-11-25T14:43:25.447Z,30.17
2018-11-25T14:46:30.883Z,29.03
2018-11-25T14:49:36.235Z,31.07
2018-11-25T14:52:42.491Z,29.43
2018-11-25T14:55:47.847Z,29.47
2018-11-25T14:58:53.283Z,28.57
2018-11-25T15:01:58.735Z,29.40
2018-11-25T15:05:04.156Z,30.73
2018-11-25T15:08:11.289Z,29.33
2018-11-25T15:11:16.759Z,29.03
2018-11-25T15:14:22.119Z,28.10
2018-11-25T15:17:27.455Z,28.33
2018-11-25T15:20:32.839Z,28.77
2018-11-25T15:23:38.385Z,29.70
2018-11-25T15:26:43.743Z,27.97
2018-11-25T15:29:49.096Z,28.30
2018-11-25T15:32:54.434Z,28.70
2018-11-25T15:35:59.775Z,28.30
2018-11-25T15:39:09.403Z,28.83
2018-11-25T15:42:14.779Z,27.13
2018-11-25T15:45:20.158Z,27.30
2018-11-25T15:48:30.444Z,27.73
2018-11-25T15:51:35.848Z,28.53
2018-11-25T15:54:41.204Z,25.97
2018-11-25T15:57:46.555Z,32.70
2018-11-25T16:00:51.915Z,30.47
2018-11-25T16:03:57.567Z,34.00
2018-11-25T16:07:03.067Z,28.60
2018-11-25T16:10:12.868Z,30.03
2018-11-25T16:13:18.247Z,29.37
2018-11-25T16:16:23.643Z,29.13
2018-11-25T16:19:28.951Z,29.10
2018-11-25T16:22:34.626Z,28.17
2018-11-25T16:25:47.263Z,27.03
2018-11-25T16:28:55.919Z,30.57
2018-11-25T16:32:01.320Z,27.67
2018-11-25T16:35:08.727Z,28.17
2018-11-25T16:38:14.100Z,27.93
2018-11-25T16:41:19.532Z,29.43
2018-11-25T16:44:24.876Z,29.53
2018-11-25T16:47:30.231Z,26.83
2018-11-25T16:50:35.619Z,26.30
2018-11-25T16:53:41.003Z,28.10
2018-11-25T16:56:46.379Z,28.33
2018-11-25T16:59:51.743Z,27.43
2018-11-25T17:02:57.139Z,27.07
2018-11-25T17:06:02.619Z,27.60
2018-11-25T17:09:12.010Z,27.67
2018-11-25T17:12:17.387Z,26.63
2018-11-25T17:15:24.819Z,26.57
2018-11-25T17:18:30.182Z,27.73
2018-11-25T17:21:35.551Z,27.33
2018-11-25T17:24:40.907Z,26.90
2018-11-25T17:27:46.328Z,27.60
2018-11-25T17:30:51.688Z,27.10
2018-11-25T17:33:57.032Z,26.13
2018-11-25T17:37:02.404Z,26.60
2018-11-25T17:40:09.730Z,26.73
2018-11-25T17:43:18.812Z,26.27
2018-11-25T17:46:24.235Z,26.87
2018-11-25T17:49:29.564Z,25.37
2018-11-25T17:52:34.978Z,26.07
2018-11-25T17:55:40.350Z,25.57
2018-11-25T17:58:45.691Z,27.33
2018-11-25T18:01:51.062Z,27.50
2018-11-25T18:04:56.428Z,26.33
2018-11-25T18:08:01.780Z,25.53
2018-11-25T18:11:07.887Z,27.70
2018-11-25T18:14:13.220Z,26.53
2018-11-25T18:17:18.564Z,26.20
2018-11-25T18:20:24.692Z,25.47
2018-11-25T18:23:30.059Z,27.23
2018-11-25T18:26:35.446Z,26.47
2018-11-25T18:29:40.771Z,25.20
2018-11-25T18:32:46.683Z,25.43
2018-11-25T18:35:52.012Z,23.67
2018-11-25T18:38:57.361Z,25.30
2018-11-25T18:42:02.787Z,22.70
2018-11-25T18:45:12.210Z,25.40
2018-11-25T18:48:18.285Z,23.33
2018-11-25T18:51:23.748Z,23.03
2018-11-25T18:54:29.079Z,22.67
2018-11-25T18:57:34.455Z,23.07
2018-11-25T19:00:46.870Z,21.80
2018-11-25T19:03:52.284Z,22.97
2018-11-25T19:06:57.665Z,23.47
2018-11-25T19:10:03.020Z,22.17
2018-11-25T19:13:08.792Z,22.00
2018-11-25T19:16:14.143Z,22.43
2018-11-25T19:19:19.495Z,21.87
2018-11-25T19:22:26.108Z,23.93
2018-11-25T19:25:33.651Z,21.27
2018-11-25T19:28:39.098Z,22.40
2018-11-25T19:31:44.918Z,20.90
2018-11-25T19:34:50.381Z,20.07
2018-11-25T19:37:55.751Z,19.77
2018-11-25T19:41:01.200Z,20.97
2018-11-25T19:44:07.377Z,20.30
2018-11-25T19:47:12.899Z,21.33
2018-11-25T19:50:28.597Z,19.50
2018-11-25T19:53:34.028Z,20.23
2018-11-25T19:56:39.419Z,19.73
2018-11-25T19:59:44.911Z,20.60
2018-11-25T20:02:50.356Z,20.33
2018-11-25T20:05:55.846Z,19.80
2018-11-25T20:09:01.235Z,20.70
2018-11-25T20:12:06.954Z,19.57
2018-11-25T20:15:14.900Z,18.50
2018-11-25T20:18:20.599Z,18.47
2018-11-25T20:21:31.277Z,17.80
2018-11-25T20:24:36.667Z,18.07
2018-11-25T20:27:43.472Z,16.93
2018-11-25T20:30:48.867Z,18.10
2018-11-25T20:33:57.667Z,16.27
2018-11-25T20:37:03.015Z,17.37
2018-11-25T20:40:09.034Z,16.07
2018-11-25T20:43:14.419Z,16.10
2018-11-25T20:47:24.051Z,16.00
2018-11-25T20:50:29.447Z,16.97
2018-11-25T20:53:39.940Z,15.80
2018-11-25T20:56:45.274Z,17.37
2018-11-25T20:59:50.648Z,16.57
2018-11-25T21:02:56.035Z,16.17
2018-11-25T21:06:01.421Z,16.33
2018-11-25T21:09:10.377Z,16.87
2018-11-25T21:12:15.755Z,16.13
2018-11-25T21:15:32.835Z,16.33
2018-11-25T21:18:38.383Z,16.30
2018-11-25T21:21:43.808Z,16.40
2018-11-25T21:24:49.227Z,18.10
2018-11-25T21:27:54.615Z,16.43
2018-11-25T21:31:00.390Z,16.80
2018-11-25T21:34:06.263Z,16.97
2018-11-25T21:37:11.676Z,15.43
2018-11-25T21:40:19.569Z,17.30
2018-11-25T21:43:24.955Z,17.90
2018-11-25T21:46:30.324Z,16.77
2018-11-25T21:49:35.660Z,17.17
2018-11-25T21:52:41.185Z,16.70
2018-11-25T21:55:46.548Z,16.60
2018-11-25T21:58:52.497Z,16.83
2018-11-25T22:01:58.044Z,16.20
2018-11-25T22:05:03.393Z,17.07
2018-11-25T22:08:08.851Z,17.67
2018-11-25T22:11:14.319Z,16.43
2018-11-25T22:14:19.766Z,16.83
2018-11-25T22:17:25.125Z,17.60
2018-11-25T22:20:30.511Z,16.60
2018-11-25T22:23:35.984Z,16.23
2018-11-25T22:26:41.432Z,15.53
2018-11-25T22:29:46.775Z,16.77
2018-11-25T22:32:52.679Z,16.00
2018-11-25T22:35:58.055Z,16.60
2018-11-25T22:39:03.707Z,15.87
2018-11-25T22:42:09.184Z,16.03
2018-11-25T22:45:17.084Z,15.17
2018-11-25T22:48:22.436Z,15.23
2018-11-25T22:51:27.969Z,15.97
2018-11-25T22:54:33.435Z,14.70
2018-11-25T22:57:38.799Z,15.20
2018-11-25T23:00:44.621Z,14.77
2018-11-25T23:04:05.996Z,14.53
2018-11-25T23:07:11.403Z,13.73
2018-11-25T23:10:17.092Z,15.80
2018-11-25T23:13:22.619Z,15.23
2018-11-25T23:16:28.042Z,14.20
2018-11-25T23:19:33.519Z,13.43
2018-11-25T23:22:38.996Z,15.20
2018-11-25T23:25:44.404Z,15.10
2018-11-25T23:28:49.852Z,14.67
2018-11-25T23:31:55.244Z,14.33
2018-11-25T23:35:00.611Z,13.97
2018-11-25T23:38:06.588Z,14.80
2018-11-25T23:41:12.663Z,14.77
2018-11-25T23:44:18.131Z,14.23
2018-11-25T23:47:23.558Z,14.50
2018-11-25T23:50:29.022Z,15.13
2018-11-25T23:53:34.585Z,16.03
2018-11-25T23:56:40.012Z,15.57
2018-11-25T23:59:45.475Z,14.80
